Time;durP1;ratioP1;P1;durP2;ratioP2;P2;SDS_P1;SDS_P2;PMS_P1;PMS_P2;Temp;Humidity;BMP_temperature;BMP_pressure;BME280_temperature;BME280_humidity;BME280_pressure;Samples;Min_cycle;Max_cycle;Signal;HPM_P1;HPM_P2
2022/01/19 00:00:30;;;;;;;14.10;3.97;;;;;;;4.70;55.40;99777.94;4455904;32;20108;-80
2022/01/19 00:02:57;;;;;;;15.32;3.55;;;;;;;5.48;52.16;99776.75;4456160;32;20088;-80
2022/01/19 00:05:24;;;;;;;14.25;3.70;;;;;;;4.09;56.63;99774.78;4456270;32;20117;-80
2022/01/19 00:07:51;;;;;;;14.55;3.87;;;;;;;3.92;56.94;99777.12;4455899;32;20101;-80
2022/01/19 00:10:26;;;;;;;11.50;3.37;;;;;;;3.73;57.75;99766.72;4456111;32;20157;-80
2022/01/19 00:12:55;;;;;;;14.63;3.95;;;;;;;3.31;59.81;99761.06;4455812;32;20106;-80
2022/01/19 00:15:23;;;;;;;15.40;3.78;;;;;;;4.00;57.84;99766.16;4442255;32;20077;-80
2022/01/19 00:17:54;;;;;;;13.40;3.62;;;;;;;3.52;58.89;99758.81;4454925;32;20184;-80
2022/01/19 00:20:22;;;;;;;10.25;2.72;;;;;;;3.23;59.27;99771.16;4455886;32;20113;-80
2022/01/19 00:22:49;;;;;;;13.07;3.25;;;;;;;4.23;56.98;99779.19;4455963;32;20089;-80
2022/01/19 00:25:17;;;;;;;14.93;3.58;;;;;;;3.19;59.90;99769.41;4455896;32;20107;-80
2022/01/19 00:27:44;;;;;;;13.57;3.53;;;;;;;2.83;61.23;99767.16;4455840;32;20089;-81
2022/01/19 00:30:12;;;;;;;11.65;3.72;;;;;;;3.30;59.64;99764.47;4456011;32;20093;-80
2022/01/19 00:32:39;;;;;;;12.88;3.83;;;;;;;3.36;59.55;99770.50;4455940;32;20159;-80
2022/01/19 00:35:09;;;;;;;10.15;3.40;;;;;;;4.59;54.97;99771.03;4455621;32;20156;-80
2022/01/19 00:37:40;;;;;;;15.15;3.80;;;;;;;5.41;52.55;99772.44;4455942;32;20172;-80
2022/01/19 00:40:09;;;;;;;14.98;4.00;;;;;;;5.39;52.06;99777.56;4456059;32;20107;-80
2022/01/19 00:42:36;;;;;;;11.40;3.65;;;;;;;5.53;51.59;99777.66;4455486;32;20100;-80
2022/01/19 00:45:04;;;;;;;13.10;3.72;;;;;;;4.76;53.42;99785.63;4455954;32;20152;-80
2022/01/19 00:47:32;;;;;;;15.70;4.10;;;;;;;5.13;52.19;99779.97;4455954;32;20096;-80
2022/01/19 00:49:59;;;;;;;13.27;3.65;;;;;;;5.45;51.54;99790.41;4455493;32;20092;-80
2022/01/19 00:52:25;;;;;;;15.90;3.83;;;;;;;5.72;50.67;99794.78;4455810;32;20088;-80
2022/01/19 00:54:52;;;;;;;16.30;3.83;;;;;;;5.68;50.53;99792.22;4455846;32;20511;-80
2022/01/19 00:57:19;;;;;;;10.70;3.53;;;;;;;5.18;52.05;99796.19;4455481;32;20097;-80
2022/01/19 00:59:46;;;;;;;;;;;;;;;5.54;50.38;99775.94;4456093;32;20443;-80
2022/01/19 01:02:13;;;;;;;10.77;3.60;;;;;;;5.47;51.03;99791.25;4455446;32;20393;-80
2022/01/19 01:04:40;;;;;;;14.32;3.58;;;;;;;5.74;50.06;99785.44;4455712;32;20139;-80
2022/01/19 01:07:07;;;;;;;;;;;;;;;5.70;50.40;99803.31;4456065;32;20491;-80
2022/01/19 01:09:34;;;;;;;13.73;4.20;;;;;;;5.81;49.71;99802.53;4455381;32;20057;-80
2022/01/19 01:12:09;;;;;;;13.07;3.62;;;;;;;6.20;48.68;99795.87;4455509;32;20148;-80
2022/01/19 01:20:09;;;;;;;18.80;3.78;;;;;;;6.24;48.53;99768.53;4455666;32;20101;-80
2022/01/19 01:22:37;;;;;;;10.85;3.58;;;;;;;5.74;49.72;99761.50;4455354;32;20157;-80
2022/01/19 01:25:05;;;;;;;15.88;4.22;;;;;;;6.66;46.97;99770.28;4455202;32;20103;-80
2022/01/19 01:27:35;;;;;;;12.02;3.72;;;;;;;6.43;47.96;99767.72;4455346;32;20120;-80
2022/01/19 01:30:04;;;;;;;12.93;4.12;;;;;;;6.64;47.18;99754.03;4456007;32;20707;-80
2022/01/19 01:32:31;;;;;;;12.37;3.53;;;;;;;6.21;48.35;99740.34;4457114;32;20443;-80
2022/01/19 01:34:58;;;;;;;11.32;3.80;;;;;;;5.39;49.96;99723.78;4457288;32;20097;-80
2022/01/19 01:37:25;;;;;;;13.38;4.37;;;;;;;5.72;49.67;99719.66;4456918;32;20716;-80
2022/01/19 01:39:52;;;;;;;14.63;4.40;;;;;;;5.42;50.30;99726.41;4457284;32;20439;-80
2022/01/19 01:42:20;;;;;;;15.75;4.05;;;;;;;5.61;49.43;99723.88;4457139;32;20487;-80
2022/01/19 01:44:50;;;;;;;15.65;4.50;;;;;;;6.62;46.91;99723.28;4442900;32;20165;-80
2022/01/19 01:47:20;;;;;;;13.40;4.28;;;;;;;6.56;46.23;99730.09;4457187;32;20092;-80
2022/01/19 01:53:26;;;;;;;16.30;4.30;;;;;;;6.37;46.58;99726.66;4457034;32;20081;-80
2022/01/19 01:55:22;;;;;;;16.30;4.90;;;;;;;6.37;46.16;99719.81;4445386;32;20165;-80
2022/01/19 01:57:49;;;;;;;13.95;4.07;;;;;;;6.46;46.59;99713.84;4457103;32;20089;-80
2022/01/19 02:00:21;;;;;;;12.35;3.90;;;;;;;5.84;47.56;99696.63;4456833;32;20163;-80
2022/01/19 02:02:48;;;;;;;12.18;3.78;;;;;;;5.86;47.58;99709.47;4443115;32;20086;-80
2022/01/19 02:05:16;;;;;;;18.75;4.32;;;;;;;5.86;48.00;99699.22;4456714;32;20427;-80
2022/01/19 02:08:02;;;;;;;12.43;4.20;;;;;;;5.95;47.27;99694.13;4457245;32;20112;-80
2022/01/19 02:15:55;;;;;;;12.15;3.58;;;;;;;6.11;47.96;99692.47;4456943;32;20089;-80
2022/01/19 02:23:56;;;;;;;12.13;3.45;;;;;;;5.78;47.87;99683.84;4456683;32;20097;-80
2022/01/19 02:27:12;;;;;;;10.27;3.50;;;;;;;5.19;49.96;99680.19;4456357;32;20127;-80
2022/01/19 02:29:42;;;;;;;14.27;3.62;;;;;;;4.40;53.26;99682.25;4446769;32;20356;-80
2022/01/19 02:40:24;;;;;;;19.40;4.15;;;;;;;5.79;48.55;99654.81;4456187;32;20097;-80
2022/01/19 02:43:21;;;;;;;13.65;3.58;;;;;;;6.66;46.39;99654.88;4456357;32;20102;-80
2022/01/19 02:51:11;;;;;;;13.07;3.53;;;;;;;6.37;45.82;99653.16;4456693;32;20101;-80
2022/01/19 02:53:38;;;;;;;11.05;3.65;;;;;;;6.84;45.28;99636.88;4456652;32;20097;-80
2022/01/19 02:56:16;;;;;;;10.52;3.47;;;;;;;6.94;45.12;99630.00;4456341;32;20092;-80
2022/01/19 02:58:45;;;;;;;10.63;3.42;;;;;;;6.71;45.33;99637.78;4456798;32;20099;-80
2022/01/19 03:09:24;;;;;;;14.57;4.25;;;;;;;6.68;45.16;99630.91;4456341;32;20116;-80
2022/01/19 03:11:51;;;;;;;13.88;3.60;;;;;;;6.65;44.92;99625.78;4456501;32;20098;-80
2022/01/19 03:14:18;;;;;;;11.57;3.30;;;;;;;5.19;47.96;99616.22;4456617;32;20115;-80
2022/01/19 03:16:46;;;;;;;11.95;3.30;;;;;;;5.05;48.47;99614.47;4456158;32;20145;-80
2022/01/19 03:19:14;;;;;;;12.82;3.55;;;;;;;5.92;45.87;99600.19;4456601;32;20411;-80
2022/01/19 03:21:41;;;;;;;15.20;3.72;;;;;;;5.63;46.49;99605.25;4456503;32;20107;-80
2022/01/19 03:24:10;;;;;;;13.50;3.65;;;;;;;4.16;49.45;99605.41;4456038;32;20157;-80
2022/01/19 03:26:37;;;;;;;13.55;3.62;;;;;;;3.84;51.14;99612.78;4456235;32;20168;-80
2022/01/19 03:29:04;;;;;;;10.90;3.30;;;;;;;3.46;51.81;99613.25;4456505;32;20567;-80
2022/01/19 03:31:31;;;;;;;;;;;;;;;4.70;48.28;99601.50;4456367;32;20085;-80
2022/01/19 03:33:59;;;;;;;13.18;3.72;;;;;;;4.94;48.05;99615.25;4442484;32;19999;-80
2022/01/19 03:36:26;;;;;;;11.02;3.40;;;;;;;4.77;48.43;99618.56;4456057;32;20112;-80
2022/01/19 03:38:52;;;;;;;;;;;;;;;5.32;47.59;99612.03;4456813;32;20436;-80
2022/01/19 03:41:19;;;;;;;11.05;3.58;;;;;;;5.23;47.90;99624.78;4456451;32;19990;-80
2022/01/19 03:43:46;;;;;;;12.45;3.70;;;;;;;5.08;48.26;99625.56;4455960;32;20120;-80
2022/01/19 03:46:15;;;;;;;16.40;3.90;;;;;;;4.29;49.90;99627.66;4456532;32;20426;-80
2022/01/19 03:48:53;;;;;;;16.42;4.90;;;;;;;4.72;49.48;99618.56;4456468;32;20077;-80
2022/01/19 03:51:21;;;;;;;13.75;3.45;;;;;;;4.58;50.46;99626.16;4455977;32;20119;-80
2022/01/19 03:53:49;;;;;;;11.20;3.42;;;;;;;4.95;49.14;99618.69;4455907;32;20088;-80
2022/01/19 03:56:17;;;;;;;16.70;3.92;;;;;;;5.02;48.76;99622.13;4456391;32;20156;-80
2022/01/19 03:58:44;;;;;;;11.65;3.65;;;;;;;4.83;49.18;99628.84;4455986;32;20116;-80
2022/01/19 04:01:11;;;;;;;12.98;3.50;;;;;;;4.99;48.88;99622.09;4456359;32;20093;-80
2022/01/19 04:06:28;;;;;;;13.88;3.72;;;;;;;4.99;48.50;99616.97;4455980;32;20105;-80
2022/01/19 04:08:55;;;;;;;12.77;3.20;;;;;;;5.53;47.23;99631.72;4456319;32;20423;-80
2022/01/19 04:11:23;;;;;;;20.67;3.78;;;;;;;5.14;47.43;99632.41;4456085;32;20111;-80
2022/01/19 04:16:24;;;;;;;11.52;3.97;;;;;;;3.35;55.54;99628.44;4456311;32;20638;-80
2022/01/19 04:18:59;;;;;;;11.98;4.12;;;;;;;4.86;49.67;99622.03;4455876;32;20102;-80
2022/01/19 04:21:26;;;;;;;12.13;3.62;;;;;;;5.92;46.08;99620.69;4442320;32;20116;-80
2022/01/19 04:23:53;;;;;;;11.70;3.60;;;;;;;6.20;44.42;99619.00;4455959;32;20077;-80
2022/01/19 04:26:20;;;;;;;13.93;3.62;;;;;;;6.39;43.52;99617.31;4455533;32;20468;-80
2022/01/19 04:28:47;;;;;;;15.02;3.80;;;;;;;6.46;43.80;99613.00;4456134;32;20420;-80
2022/01/19 04:31:14;;;;;;;14.95;3.40;;;;;;;6.55;43.99;99608.72;4455896;32;20155;-80
2022/01/19 04:33:44;;;;;;;12.57;3.15;;;;;;;6.36;44.38;99602.75;4455627;32;20101;-80
2022/01/19 04:44:52;;;;;;;11.75;4.20;;;;;;;5.25;46.86;99579.56;4455920;32;20384;-80
2022/01/19 05:03:50;;;;;;;9.35;3.45;;;;;;;5.28;47.27;99566.78;4455064;32;20161;-80
2022/01/19 05:06:19;;;;;;;13.68;3.92;;;;;;;6.14;45.71;99570.31;4455788;32;20400;-80
2022/01/19 05:14:05;;;;;;;16.58;4.20;;;;;;;5.13;49.55;99559.91;4455578;32;20145;-80
2022/01/19 05:16:32;;;;;;;16.42;5.28;;;;;;;4.29;52.45;99551.84;4455279;32;20114;-80
2022/01/19 05:18:59;;;;;;;24.42;6.15;;;;;;;5.13;50.04;99554.81;4455738;32;20150;-80
2022/01/19 05:21:26;;;;;;;25.25;8.40;;;;;;;5.47;48.58;99555.72;4455619;32;20140;-79
2022/01/19 05:23:53;;;;;;;16.15;5.22;;;;;;;5.90;45.18;99560.03;4455061;32;20168;-80
2022/01/19 05:26:20;;;;;;;17.92;5.43;;;;;;;5.88;45.07;99552.37;4455386;32;20161;-80
2022/01/19 05:28:47;;;;;;;19.00;7.50;;;;;;;4.97;46.93;99554.72;4455181;32;20163;-80
2022/01/19 05:31:14;;;;;;;33.05;10.73;;;;;;;4.87;46.13;99551.28;4455345;32;20235;-80
2022/01/19 05:33:41;;;;;;;12.88;4.22;;;;;;;5.19;45.91;99556.50;4455269;32;20427;-80
2022/01/19 05:36:08;;;;;;;13.52;3.92;;;;;;;5.43;44.85;99546.34;4455077;32;20412;-80
2022/01/19 05:38:35;;;;;;;17.05;3.65;;;;;;;4.58;46.80;99539.25;4455364;32;20153;-80
2022/01/19 05:41:02;;;;;;;8.82;3.05;;;;;;;3.56;50.03;99551.25;4455326;32;20441;-80
2022/01/19 05:43:29;;;;;;;10.85;3.47;;;;;;;4.27;48.14;99550.13;4454766;32;20116;-80
2022/01/19 05:45:56;;;;;;;12.27;3.53;;;;;;;3.00;51.83;99565.97;4455248;32;20104;-80
2022/01/19 05:48:24;;;;;;;15.23;3.25;;;;;;;3.77;49.58;99561.66;4455235;32;20085;-80
2022/01/19 05:50:51;;;;;;;12.10;3.45;;;;;;;4.12;48.44;99553.41;4454755;32;20157;-80
2022/01/19 05:53:17;;;;;;;;;;;;;;;4.22;47.99;99554.34;4455358;32;20152;-80
2022/01/19 05:55:45;;;;;;;13.07;3.22;;;;;;;3.54;49.74;99554.66;4455278;32;19977;-80
2022/01/19 05:58:11;;;;;;;13.43;3.75;;;;;;;2.24;54.33;99546.31;4454800;32;20143;-80
2022/01/19 06:00:38;;;;;;;;;;;;;;;3.02;52.38;99549.84;4455326;32;20514;-80
2022/01/19 06:03:06;;;;;;;16.58;4.10;;;;;;;3.27;51.91;99547.56;4455014;32;19992;-80
2022/01/19 06:05:33;;;;;;;11.50;3.62;;;;;;;3.23;51.87;99556.03;4454585;32;20157;-80
2022/01/19 06:10:57;;;;;;;14.95;4.35;;;;;;;3.78;50.34;99559.97;4440981;32;20416;-80
2022/01/19 06:13:25;;;;;;;12.05;3.95;;;;;;;3.13;52.78;99558.47;4454701;32;20117;-80
2022/01/19 06:15:52;;;;;;;15.40;3.95;;;;;;;2.61;54.87;99551.91;4455873;32;20115;-80
2022/01/19 06:18:20;;;;;;;15.45;4.37;;;;;;;2.51;55.09;99552.59;4456732;32;20081;-80
2022/01/19 06:20:47;;;;;;;12.82;3.90;;;;;;;3.56;52.21;99556.38;4456909;32;20077;-80
2022/01/19 06:23:14;;;;;;;18.10;4.40;;;;;;;2.86;55.03;99560.69;4456841;32;20161;-80
2022/01/19 06:25:41;;;;;;;14.95;4.10;;;;;;;2.05;57.49;99553.66;4456330;32;20093;-80
2022/01/19 06:28:08;;;;;;;13.00;4.07;;;;;;;3.22;54.10;99561.97;4456997;32;20143;-80
2022/01/19 06:30:35;;;;;;;14.07;4.30;;;;;;;3.75;52.19;99547.19;4456862;32;20077;-80
2022/01/19 06:33:02;;;;;;;15.40;4.32;;;;;;;3.63;52.58;99545.38;4456486;32;20160;-80
2022/01/19 06:35:29;;;;;;;13.30;3.95;;;;;;;3.64;52.46;99544.53;4456887;32;20429;-80
2022/01/19 06:37:56;;;;;;;;;;;;;;;2.56;56.62;99545.91;4457232;32;20148;-80
2022/01/19 06:40:26;;;;;;;15.25;4.30;;;;;;;3.31;54.00;99542.53;4456696;32;19977;-80
2022/01/19 06:42:54;;;;;;;15.25;4.20;;;;;;;4.09;51.91;99543.19;4456644;32;20426;-80
2022/01/19 06:45:25;;;;;;;10.82;3.70;;;;;;;5.05;48.87;99543.69;4456685;32;20105;-80
2022/01/19 06:47:52;;;;;;;12.73;3.78;;;;;;;4.02;52.13;99532.06;4456635;32;20451;-80
2022/01/19 06:50:20;;;;;;;27.92;4.93;;;;;;;4.93;49.65;99536.81;4456817;32;20089;-80
2022/01/19 06:52:48;;;;;;;15.38;5.15;;;;;;;4.52;50.92;99530.66;4456354;32;20093;-80
2022/01/19 06:55:16;;;;;;;9.77;3.60;;;;;;;5.18;49.03;99539.44;4456651;32;20097;-81
2022/01/19 06:57:44;;;;;;;14.13;4.07;;;;;;;5.23;49.15;99530.09;4456632;32;20089;-79
2022/01/19 07:00:13;;;;;;;11.60;4.18;;;;;;;4.72;50.74;99531.62;4456437;32;20166;-79
2022/01/19 07:02:40;;;;;;;12.68;3.90;;;;;;;4.61;50.44;99525.59;4442467;32;20231;-77
2022/01/19 07:05:07;;;;;;;15.45;4.93;;;;;;;4.35;52.52;99518.66;4456628;32;20115;-77
2022/01/19 07:07:34;;;;;;;12.88;4.50;;;;;;;4.48;51.64;99528.97;4456745;32;20140;-77
2022/01/19 07:10:02;;;;;;;15.45;4.43;;;;;;;4.53;51.95;99528.13;4456459;32;20175;-78
2022/01/19 07:12:29;;;;;;;15.45;4.62;;;;;;;5.06;50.63;99531.75;4456638;32;20533;-78
2022/01/19 07:14:56;;;;;;;14.43;4.07;;;;;;;5.47;49.60;99532.69;4456006;32;20101;-77
2022/01/19 07:17:23;;;;;;;14.65;4.32;;;;;;;5.88;48.85;99525.88;4456385;32;20112;-76
2022/01/19 07:19:50;;;;;;;16.27;4.65;;;;;;;6.70;45.72;99523.22;4456147;32;20638;-77
2022/01/19 07:22:17;;;;;;;12.27;4.00;;;;;;;6.53;45.98;99523.25;4441907;32;20152;-77
2022/01/19 07:24:44;;;;;;;14.27;3.97;;;;;;;6.72;46.30;99515.50;4456168;32;20110;-77
2022/01/19 07:27:11;;;;;;;13.18;4.28;;;;;;;8.21;42.70;99511.06;4455698;32;20159;-77
2022/01/19 07:29:38;;;;;;;13.15;4.32;;;;;;;8.69;40.98;99507.09;4456092;32;20089;-77
2022/01/19 07:32:06;;;;;;;11.80;4.35;;;;;;;8.60;41.05;99502.06;4456186;32;20165;-78
2022/01/19 07:34:33;;;;;;;16.52;4.75;;;;;;;8.76;40.65;99506.16;4442279;32;20166;-79
2022/01/19 07:37:00;;;;;;;11.15;4.30;;;;;;;8.22;42.29;99517.91;4456803;32;20144;-79
2022/01/19 07:39:27;;;;;;;13.23;4.40;;;;;;;8.91;40.78;99511.13;4456747;32;20100;-77
2022/01/19 07:41:55;;;;;;;14.50;4.65;;;;;;;9.80;39.16;99502.97;4456009;32;20192;-79
2022/01/19 07:44:22;;;;;;;14.48;5.15;;;;;;;8.14;42.05;99507.69;4456189;32;20096;-79
2022/01/19 07:46:51;;;;;;;16.52;4.70;;;;;;;7.02;45.52;99525.62;4456122;32;20159;-78
2022/01/19 07:49:18;;;;;;;16.33;4.37;;;;;;;9.02;41.36;99504.97;4455816;32;20103;-78
2022/01/19 07:51:45;;;;;;;11.25;4.10;;;;;;;10.04;39.15;99506.00;4455253;32;20094;-78
2022/01/19 07:54:14;;;;;;;12.82;4.28;;;;;;;10.68;37.87;99521.16;4455911;32;20105;-78
2022/01/19 07:56:41;;;;;;;19.65;4.68;;;;;;;11.25;36.59;99505.31;4441890;32;20143;-78
2022/01/19 07:59:08;;;;;;;11.12;4.35;;;;;;;11.18;36.46;99496.03;4456152;32;20148;-78
2022/01/19 08:01:35;;;;;;;13.23;4.68;;;;;;;11.02;36.95;99502.41;4456037;32;20093;-77
2022/01/19 08:04:02;;;;;;;14.32;4.82;;;;;;;11.11;36.92;99497.03;4455708;32;20104;-78
2022/01/19 08:06:29;;;;;;;12.23;4.57;;;;;;;9.77;39.68;99494.41;4456154;32;20108;-78
2022/01/19 08:08:56;;;;;;;;;;;;;;;7.86;44.27;99501.94;4456444;32;20144;-78
2022/01/19 08:11:24;;;;;;;17.25;4.12;;;;;;;9.95;40.45;99498.41;4455220;32;19977;-77
2022/01/19 08:13:51;;;;;;;12.85;5.20;;;;;;;10.78;38.35;99490.84;4453719;32;20127;-78
2022/01/19 08:16:18;;;;;;;16.37;5.15;;;;;;;9.99;40.34;99500.91;4453565;32;20866;-78
2022/01/19 08:18:45;;;;;;;14.20;4.30;;;;;;;8.97;42.60;99490.47;4453297;32;20131;-78
2022/01/19 08:21:14;;;;;;;12.63;4.93;;;;;;;10.28;39.68;99489.25;4439641;32;20193;-78
2022/01/19 08:23:41;;;;;;;13.45;4.30;;;;;;;9.76;40.77;99472.09;4453371;32;20120;-78
2022/01/19 08:26:08;;;;;;;13.02;4.68;;;;;;;10.93;38.61;99481.94;4453120;32;20104;-78
2022/01/19 08:28:35;;;;;;;14.75;5.45;;;;;;;10.42;39.83;99497.59;4455778;32;20153;-77
2022/01/19 08:31:02;;;;;;;15.60;5.00;;;;;;;10.41;39.62;99489.00;4455584;32;20105;-77
2022/01/19 08:33:29;;;;;;;17.27;6.80;;;;;;;10.30;39.79;99477.19;4455636;32;20573;-78
2022/01/19 08:35:56;;;;;;;16.67;5.55;;;;;;;9.17;42.87;99463.59;4455894;32;20148;-78
2022/01/19 08:38:23;;;;;;;14.07;5.70;;;;;;;9.14;43.61;99459.31;4455021;32;20114;-79
2022/01/19 08:40:50;;;;;;;17.35;5.20;;;;;;;9.61;42.41;99452.59;4455367;32;20090;-79
2022/01/19 08:43:17;;;;;;;16.92;5.37;;;;;;;9.12;43.68;99460.22;4455696;32;20089;-79
2022/01/19 08:45:44;;;;;;;15.32;5.03;;;;;;;10.31;41.03;99465.97;4455515;32;20100;-78
2022/01/19 08:48:12;;;;;;;14.63;5.85;;;;;;;10.99;39.07;99454.25;4455849;32;20172;-77
2022/01/19 08:50:38;;;;;;;14.15;4.68;;;;;;;11.00;39.22;99465.44;4455735;32;20101;-78
2022/01/19 08:53:05;;;;;;;17.05;6.05;;;;;;;10.63;39.99;99470.50;4441358;32;20152;-78
2022/01/19 08:55:32;;;;;;;15.10;5.45;;;;;;;11.10;39.01;99454.00;4455705;32;20176;-78
2022/01/19 08:57:59;;;;;;;17.58;5.85;;;;;;;10.52;40.20;99467.28;4455689;32;20160;-78
2022/01/19 09:00:26;;;;;;;13.77;5.22;;;;;;;10.97;39.82;99468.94;4455329;32;20104;-79
2022/01/19 09:02:53;;;;;;;17.85;5.15;;;;;;;11.37;38.35;99469.75;4455495;32;20112;-79
2022/01/19 09:05:20;;;;;;;13.90;4.65;;;;;;;9.75;42.44;99465.25;4455765;32;20149;-79
2022/01/19 09:07:48;;;;;;;17.85;5.22;;;;;;;10.56;41.02;99463.78;4455229;32;20143;-78
2022/01/19 09:10:15;;;;;;;16.48;5.62;;;;;;;11.01;39.79;99449.91;4455690;32;20097;-78
2022/01/19 09:12:43;;;;;;;16.55;5.70;;;;;;;10.17;41.40;99457.63;4455348;32;20158;-79
2022/01/19 09:15:11;;;;;;;19.55;5.62;;;;;;;9.63;43.10;99461.13;4441400;32;20176;-79
2022/01/19 09:17:41;;;;;;;14.90;5.43;;;;;;;9.29;43.64;99468.56;4455543;32;20104;-78
2022/01/19 09:20:09;;;;;;;14.95;5.37;;;;;;;10.01;42.23;99475.97;4441549;32;20378;-79
2022/01/19 09:22:36;;;;;;;15.73;5.40;;;;;;;9.59;43.26;99463.81;4441475;32;20447;-78
2022/01/19 09:25:06;;;;;;;15.10;4.72;;;;;;;10.05;42.43;99458.69;4455419;32;20145;-78
2022/01/19 09:27:33;;;;;;;16.75;5.50;;;;;;;9.73;42.96;99460.13;4454962;32;20103;-79
2022/01/19 09:30:00;;;;;;;17.90;5.00;;;;;;;10.00;41.73;99455.38;4455344;32;20145;-78
2022/01/19 09:32:28;;;;;;;18.50;5.60;;;;;;;10.15;41.99;99455.94;4455127;32;20123;-79
2022/01/19 09:34:58;;;;;;;14.80;4.85;;;;;;;10.01;42.77;99460.50;4454751;32;20408;-78
2022/01/19 09:37:25;;;;;;;15.27;4.87;;;;;;;9.09;44.91;99445.66;4455356;32;20168;-78
2022/01/19 09:40:10;;;;;;;14.50;4.82;;;;;;;9.36;43.13;99436.69;4455250;32;20101;-78
2022/01/19 09:42:37;;;;;;;15.57;5.12;;;;;;;8.72;45.01;99436.72;4454943;32;20713;-78
2022/01/19 09:45:05;;;;;;;17.05;5.35;;;;;;;9.09;44.66;99440.50;4455093;32;20145;-78
2022/01/19 09:47:32;;;;;;;13.48;4.87;;;;;;;9.59;43.30;99427.72;4455105;32;20503;-78
2022/01/19 09:49:59;;;;;;;13.90;4.68;;;;;;;9.43;43.77;99425.38;4454918;32;20162;-78
2022/01/19 09:52:27;;;;;;;13.27;4.60;;;;;;;10.25;41.67;99419.69;4456790;32;20101;-78
2022/01/19 09:54:55;;;;;;;15.48;4.18;;;;;;;10.70;41.04;99410.97;4442954;32;20092;-78
2022/01/19 09:57:22;;;;;;;12.98;4.40;;;;;;;10.15;41.54;99406.94;4456800;32;20136;-77
2022/01/19 09:59:49;;;;;;;16.40;4.57;;;;;;;10.98;39.74;99400.06;4442996;32;20101;-77
2022/01/19 10:02:17;;;;;;;13.05;4.28;;;;;;;10.51;40.58;99401.94;4456612;32;20111;-77
2022/01/19 10:04:47;;;;;;;11.93;4.03;;;;;;;11.06;39.54;99393.00;4456868;32;20151;-77
2022/01/19 10:07:22;;;;;;;13.23;4.07;;;;;;;10.60;39.68;99390.56;4443460;32;20137;-76
2022/01/19 10:09:57;;;;;;;11.20;4.00;;;;;;;10.19;40.12;99397.38;4442713;32;20172;-77
2022/01/19 10:18:26;;;;;;;14.87;4.53;;;;;;;10.08;41.34;99376.97;4456476;32;20124;-77
2022/01/19 10:21:13;;;;;;;15.88;5.07;;;;;;;10.04;41.72;99359.88;4456862;32;20535;-77
2022/01/19 10:23:48;;;;;;;15.07;5.93;;;;;;;10.42;41.04;99363.44;4429710;32;20168;-77
2022/01/19 10:26:26;;;;;;;13.05;5.12;;;;;;;10.42;40.61;99360.84;4456504;32;20081;-78
2022/01/19 10:29:08;;;;;;;14.93;5.53;;;;;;;9.51;42.93;99347.97;4456847;32;20077;-78
2022/01/19 10:31:37;;;;;;;16.85;6.55;;;;;;;9.94;41.87;99342.88;4456518;32;20156;-78
2022/01/19 10:34:23;;;;;;;17.00;5.85;;;;;;;10.45;40.82;99329.81;4457060;32;20108;-78
2022/01/19 10:37:02;;;;;;;17.92;5.72;;;;;;;11.42;38.70;99329.22;4456758;32;20081;-78
2022/01/19 10:39:46;;;;;;;15.30;6.10;;;;;;;10.63;39.62;99325.97;4443416;32;20081;-78
2022/01/19 10:42:17;;;;;;;16.20;5.78;;;;;;;10.42;41.09;99317.84;4456713;32;20152;-78
2022/01/19 10:44:48;;;;;;;17.15;6.25;;;;;;;10.67;40.74;99312.97;4456338;32;20568;-78
2022/01/19 10:47:45;;;;;;;18.37;6.90;;;;;;;10.99;39.78;99308.78;4456655;32;20089;-78
2022/01/19 10:50:19;;;;;;;16.75;6.30;;;;;;;11.59;38.96;99297.78;4456705;32;20149;-78
2022/01/19 10:52:47;;;;;;;17.50;7.03;;;;;;;11.55;39.13;99296.12;4442183;32;20145;-78
2022/01/19 10:55:30;;;;;;;18.85;7.60;;;;;;;11.12;40.10;99288.66;4456665;32;20105;-79
2022/01/19 10:57:58;;;;;;;16.73;6.60;;;;;;;11.21;40.00;99281.53;4456706;32;20137;-78
2022/01/19 11:00:28;;;;;;;15.55;6.35;;;;;;;11.11;40.33;99285.22;4456344;32;20085;-78
2022/01/19 11:02:57;;;;;;;16.87;4.90;;;;;;;11.56;38.97;99270.25;4455655;32;20144;-78
2022/01/19 11:05:46;;;;;;;11.40;3.90;;;;;;;10.05;41.65;99263.56;4442306;32;20177;-78
2022/01/19 11:08:14;;;;;;;13.15;3.97;;;;;;;10.19;41.12;99265.84;4456638;32;20148;-78
2022/01/19 11:10:41;;;;;;;11.27;3.87;;;;;;;10.63;39.84;99256.28;4442490;32;20099;-78
2022/01/19 11:13:13;;;;;;;9.93;3.58;;;;;;;10.70;40.18;99256.09;4455983;32;20140;-78
2022/01/19 11:15:42;;;;;;;10.23;3.90;;;;;;;10.05;41.17;99242.09;4456430;32;20101;-78
2022/01/19 11:18:09;;;;;;;12.15;3.37;;;;;;;10.55;40.40;99243.56;4456575;32;20164;-78
2022/01/19 11:20:44;;;;;;;11.60;3.17;;;;;;;10.48;40.72;99241.16;4456158;32;20152;-78
2022/01/19 11:23:15;;;;;;;17.10;3.92;;;;;;;10.79;39.88;99242.12;4442396;32;20490;-78
2022/01/19 11:26:01;;;;;;;13.35;3.62;;;;;;;10.32;40.51;99232.94;4456205;32;20136;-78
2022/01/19 11:28:34;;;;;;;13.30;3.58;;;;;;;9.70;42.23;99241.09;4456222;32;20177;-78
2022/01/19 11:31:04;;;;;;;11.82;3.90;;;;;;;9.66;42.20;99236.88;4456388;32;20089;-78
2022/01/19 11:33:32;;;;;;;9.75;3.30;;;;;;;9.90;41.90;99224.37;4455957;32;20112;-78
2022/01/19 11:36:02;;;;;;;10.75;3.40;;;;;;;9.73;42.25;99215.25;4442263;32;20141;-78
2022/01/19 11:38:51;;;;;;;11.88;3.60;;;;;;;10.22;41.04;99210.81;4442655;32;20140;-78
2022/01/19 11:41:18;;;;;;;13.23;4.05;;;;;;;9.80;42.17;99203.97;4456112;32;20124;-78
2022/01/19 11:43:51;;;;;;;;;;;;;;;10.44;41.20;99196.53;4456420;32;20163;-78
2022/01/19 11:46:31;;;;;;;10.65;4.40;;;;;;;10.04;41.68;99181.09;4456398;32;19984;-78
2022/01/19 11:49:00;;;;;;;10.38;3.55;;;;;;;9.73;42.60;99178.34;4442130;32;20439;-78
2022/01/19 11:51:42;;;;;;;13.15;3.60;;;;;;;9.81;42.19;99174.72;4456330;32;20101;-77
2022/01/19 11:54:14;;;;;;;11.80;3.75;;;;;;;10.30;41.63;99176.19;4456041;32;20157;-78
2022/01/19 11:56:59;;;;;;;13.15;4.00;;;;;;;10.37;41.96;99167.44;4456204;32;20132;-83
2022/01/19 11:59:30;;;;;;;13.68;3.78;;;;;;;9.92;42.20;99163.31;4456234;32;20081;-80
2022/01/19 12:02:26;;;;;;;11.90;3.95;;;;;;;9.79;42.33;99148.13;4455872;32;20145;-79
2022/01/19 12:05:21;;;;;;;11.93;3.83;;;;;;;10.27;41.38;99153.06;4456102;32;20154;-77
2022/01/19 12:07:55;;;;;;;12.68;4.10;;;;;;;10.28;40.98;99135.84;4456214;32;20141;-78
2022/01/19 12:10:43;;;;;;;11.73;3.80;;;;;;;10.17;42.09;99133.50;4442021;32;20431;-78
2022/01/19 12:13:34;;;;;;;10.07;3.33;;;;;;;10.25;41.21;99133.38;4442737;32;20120;-78
2022/01/19 12:16:30;;;;;;;11.32;3.78;;;;;;;9.55;42.96;99128.03;4455085;32;20106;-78
2022/01/19 12:19:14;;;;;;;9.70;3.65;;;;;;;9.13;43.87;99125.47;4456130;32;20127;-78
2022/01/19 12:22:05;;;;;;;12.82;3.75;;;;;;;9.74;42.64;99126.75;4455356;32;20093;-78
2022/01/19 12:24:44;;;;;;;12.52;3.55;;;;;;;9.83;42.04;99118.81;4454172;32;20442;-79
2022/01/19 12:27:15;;;;;;;11.75;3.60;;;;;;;10.01;42.13;99099.50;4455119;32;20164;-79
2022/01/19 12:30:09;;;;;;;11.73;3.40;;;;;;;9.54;42.73;99106.56;4455870;32;20112;-79
2022/01/19 12:32:54;;;;;;;11.00;3.55;;;;;;;9.64;42.92;99096.06;4455919;32;20101;-79
2022/01/19 12:35:23;;;;;;;8.88;3.05;;;;;;;9.74;42.87;99098.41;4455907;32;20162;-77
2022/01/19 12:37:53;;;;;;;13.02;3.72;;;;;;;9.46;43.21;99094.72;4441848;32;20120;-78
2022/01/19 12:40:21;;;;;;;11.80;3.47;;;;;;;9.67;42.68;99090.84;4456480;32;20152;-79
2022/01/19 12:43:28;;;;;;;9.88;3.03;;;;;;;9.80;42.40;99079.37;4456088;32;20101;-80
2022/01/19 12:45:56;;;;;;;12.20;3.50;;;;;;;9.03;44.52;99075.03;4456853;32;20149;-80
2022/01/19 12:48:39;;;;;;;10.35;3.30;;;;;;;8.87;44.30;99069.34;4456819;32;20111;-80
2022/01/19 12:51:06;;;;;;;10.98;3.45;;;;;;;8.72;45.12;99064.50;4455679;32;20104;-79
2022/01/19 12:53:33;;;;;;;12.85;3.35;;;;;;;9.15;44.28;99058.50;4441639;32;20161;-80
2022/01/19 12:56:05;;;;;;;14.32;3.53;;;;;;;9.37;44.32;99056.31;4455669;32;20159;-79
2022/01/19 12:58:36;;;;;;;14.35;3.45;;;;;;;9.87;42.80;99060.31;4441485;32;20162;-77
2022/01/19 13:01:08;;;;;;;12.02;3.80;;;;;;;9.92;42.79;99053.31;4455614;32;20097;-78
2022/01/19 13:03:41;;;;;;;12.68;3.72;;;;;;;9.74;42.52;99056.31;4441672;32;20146;-78
2022/01/19 13:06:13;;;;;;;13.45;4.37;;;;;;;9.43;43.38;99040.72;4455336;32;20077;-78
2022/01/19 13:08:44;;;;;;;14.15;4.07;;;;;;;9.59;43.00;99034.34;4455786;32;20140;-78
2022/01/19 13:11:28;;;;;;;14.00;3.83;;;;;;;9.91;42.44;99032.75;4455852;32;20147;-79
2022/01/19 13:13:59;;;;;;;13.48;4.87;;;;;;;9.75;42.86;99032.25;4441610;32;20094;-79